Adriatic Sea — WDB5553 — position and weather

sailwx.info

Track history (hours):
 
Tides and Currents Weather Stations Pressure Air Temp Water Temp Dewpoint Dewpoint Depression Visibility Wind Speed Wind Dir Waves Ship Positions

Adriatic Sea

Owner: Kirby Offshore Marine, LLC, Seattle, WA. More information available from US FCC via Universal Licensing System and Coast Guard Vessel Documentation Center.

Last reported at 2017-Apr-07 14:00 UTC. Time now 2017-Apr-29 23:10 UTC.
Position N 29°55' W 093°53'.
Warning: this ship's position is 22 days out of date.

Length 139 m; draft 4.6 m.

Type: . MMSI: 366910890.

Date/timePositionNaut miles runAvg speedWind from/ knotsBaromVisibWave heightAir tempDewpointWater temp
2017-Apr-07 14:00N 29°55' W 093°53'0 0.0
2017-Apr-07 13:30N 29°55' W 093°53'0 0.0
2017-Apr-07 13:00N 29°55' W 093°53'0 0.0
2017-Apr-07 12:30N 29°55' W 093°53'0 0.0
2017-Apr-07 12:00N 29°55' W 093°53'0 0.0
2017-Apr-07 11:30N 29°55' W 093°53'0 0.0
2017-Apr-07 11:00N 29°55' W 093°53'0 0.0
2017-Apr-07 10:30N 29°55' W 093°53'0 0.0
2017-Apr-07 10:00N 29°55' W 093°53'0 0.0
2017-Apr-07 09:30N 29°55' W 093°53'0 0.0
2017-Apr-07 09:00N 29°55' W 093°53'0 0.0
2017-Apr-07 08:30N 29°55' W 093°53'0 0.0
2017-Apr-07 08:00N 29°55' W 093°53'0 0.0
2017-Apr-07 07:30N 29°55' W 093°53'0 0.0
2017-Apr-07 07:00N 29°55' W 093°53'0 0.0
2017-Apr-07 06:30N 29°55' W 093°53'0 0.0
2017-Apr-07 05:59N 29°55' W 093°53'0 0.0
2017-Apr-07 05:30N 29°55' W 093°53'0 0.0
2017-Apr-07 04:53N 29°55' W 093°53'0 0.0
2017-Apr-07 04:25N 29°55' W 093°53'0 0.0
2017-Apr-07 03:28N 29°55' W 093°53'0 0.0
2017-Apr-06 14:32N 29°55' W 093°53'0 0.0
2017-Apr-06 14:00N 29°55' W 093°53'0 0.0
2017-Apr-06 13:30N 29°55' W 093°53'0 0.0
2017-Apr-06 13:00N 29°55' W 093°53'0 0.0
2017-Apr-06 12:30N 29°55' W 093°53'0 0.0
2017-Apr-06 12:00N 29°55' W 093°53'0 0.0
2017-Apr-06 11:30N 29°55' W 093°53'0 0.0
2017-Apr-06 11:00N 29°55' W 093°53'0 0.0
2017-Apr-06 10:30N 29°55' W 093°53'0 0.0
2017-Apr-06 10:00N 29°55' W 093°53'0 0.0
2017-Apr-06 09:30N 29°55' W 093°53'0 0.0
2017-Apr-06 09:00N 29°55' W 093°53'0 0.0
2017-Apr-06 08:30N 29°55' W 093°53'0 0.0
2017-Apr-06 08:00N 29°55' W 093°53'0 0.0
2017-Apr-06 07:30N 29°55' W 093°53'0 0.0
2017-Apr-06 07:00N 29°55' W 093°53'0 0.0
2017-Apr-06 06:30N 29°55' W 093°53'0 0.0
2017-Apr-06 06:00N 29°55' W 093°53'0 0.0
2017-Apr-06 05:30N 29°55' W 093°53'0 0.0
2017-Apr-06 05:00N 29°55' W 093°53'0 0.0
2017-Apr-06 04:21N 29°55' W 093°53'0 0.0
2017-Apr-06 02:53N 29°55' W 093°53'0 0.0
2017-Apr-06 02:29N 29°55' W 093°53'0 0.0
2017-Apr-05 13:29N 29°55' W 093°53'0 0.0
2017-Apr-05 03:54N 29°55' W 093°53'0 0.0
2017-Apr-05 02:20N 29°55' W 093°53'0 0.0
2017-Apr-05 01:02N 29°55' W 093°53'0 0.0
2017-Apr-05 00:57N 29°55' W 093°53'0 0.0
2017-Apr-05 00:21N 29°55' W 093°53'17 3.5
2017-Apr-04 19:34N 29°39' W 093°50'42 7.6
2017-Apr-04 13:58N 28°59' W 093°32'  
2017-Mar-30 10:17N 25°33' W 079°59'3 4.0
2017-Mar-30 09:33N 25°36' W 079°58'4 4.2
2017-Mar-30 08:33N 25°40' W 079°57'5 4.6
2017-Mar-30 07:33N 25°44' W 079°56'5 4.8
2017-Mar-30 06:33N 25°49' W 079°55'5 4.9
2017-Mar-30 05:33N 25°54' W 079°53'5 4.9
2017-Mar-30 04:29N 25°59' W 079°53'6 5.9
2017-Mar-30 03:33N 26°02' W 079°58'6 6.4
2017-Mar-30 02:33N 26°05' W 080°04'2 2.3
2017-Mar-30 01:32N 26°05' W 080°07'0 0.0
2017-Mar-30 00:32N 26°05' W 080°07'0 0.0
2017-Mar-29 23:32N 26°05' W 080°07'0 0.0
2017-Mar-29 22:32N 26°05' W 080°07'0 0.0
2017-Mar-29 21:32N 26°05' W 080°07'0 0.0
2017-Mar-29 20:32N 26°05' W 080°07'0 0.0
2017-Mar-29 19:32N 26°05' W 080°07'0 0.0
2017-Mar-29 18:33N 26°05' W 080°07'0 0.0
2017-Mar-29 17:33N 26°05' W 080°07'0 0.0
2017-Mar-29 16:33N 26°05' W 080°07'0 0.0
2017-Mar-29 15:34N 26°05' W 080°07'4 3.7
2017-Mar-29 14:34N 26°06' W 080°03'6 5.5
2017-Mar-29 13:32N 26°08' W 079°57'1 1.3
2017-Mar-29 12:33N 26°08' W 079°56'2 2.3
2017-Mar-29 11:33N 26°06' W 079°56'3 3.1
2017-Mar-29 10:33N 26°05' W 079°53'3 3.0
2017-Mar-29 09:33N 26°08' W 079°50'9 4.1
2017-Mar-29 07:27N 26°16' W 079°49'  
Track history (hours):
 
Tides and Currents Weather Stations Pressure Air Temp Water Temp Dewpoint Dewpoint Depression Visibility Wind Speed Wind Dir Waves Ship Positions

Adriatic Sea

Owner: Kirby Offshore Marine, LLC, Seattle, WA. More information available from US FCC via Universal Licensing System and Coast Guard Vessel Documentation Center.

Last reported at 2017-Apr-07 14:00 UTC. Time now 2017-Apr-29 23:10 UTC.
Position N 29°55' W 093°53'.
Warning: this ship's position is 22 days out of date.

Length 139 m; draft 4.6 m.

Type: . MMSI: 366910890.

Date/timePositionNaut miles runAvg speedWind from/ knotsBaromVisibWave heightAir tempDewpointWater temp
2017-Apr-07 14:00N 29°55' W 093°53'0 0.0
2017-Apr-07 13:30N 29°55' W 093°53'0 0.0
2017-Apr-07 13:00N 29°55' W 093°53'0 0.0
2017-Apr-07 12:30N 29°55' W 093°53'0 0.0
2017-Apr-07 12:00N 29°55' W 093°53'0 0.0
2017-Apr-07 11:30N 29°55' W 093°53'0 0.0
2017-Apr-07 11:00N 29°55' W 093°53'0 0.0
2017-Apr-07 10:30N 29°55' W 093°53'0 0.0
2017-Apr-07 10:00N 29°55' W 093°53'0 0.0
2017-Apr-07 09:30N 29°55' W 093°53'0 0.0
2017-Apr-07 09:00N 29°55' W 093°53'0 0.0
2017-Apr-07 08:30N 29°55' W 093°53'0 0.0
2017-Apr-07 08:00N 29°55' W 093°53'0 0.0
2017-Apr-07 07:30N 29°55' W 093°53'0 0.0
2017-Apr-07 07:00N 29°55' W 093°53'0 0.0
2017-Apr-07 06:30N 29°55' W 093°53'0 0.0
2017-Apr-07 05:59N 29°55' W 093°53'0 0.0
2017-Apr-07 05:30N 29°55' W 093°53'0 0.0
2017-Apr-07 04:53N 29°55' W 093°53'0 0.0
2017-Apr-07 04:25N 29°55' W 093°53'0 0.0
2017-Apr-07 03:28N 29°55' W 093°53'0 0.0
2017-Apr-06 14:32N 29°55' W 093°53'0 0.0
2017-Apr-06 14:00N 29°55' W 093°53'0 0.0
2017-Apr-06 13:30N 29°55' W 093°53'0 0.0
2017-Apr-06 13:00N 29°55' W 093°53'0 0.0
2017-Apr-06 12:30N 29°55' W 093°53'0 0.0
2017-Apr-06 12:00N 29°55' W 093°53'0 0.0
2017-Apr-06 11:30N 29°55' W 093°53'0 0.0
2017-Apr-06 11:00N 29°55' W 093°53'0 0.0
2017-Apr-06 10:30N 29°55' W 093°53'0 0.0
2017-Apr-06 10:00N 29°55' W 093°53'0 0.0
2017-Apr-06 09:30N 29°55' W 093°53'0 0.0
2017-Apr-06 09:00N 29°55' W 093°53'0 0.0
2017-Apr-06 08:30N 29°55' W 093°53'0 0.0
2017-Apr-06 08:00N 29°55' W 093°53'0 0.0
2017-Apr-06 07:30N 29°55' W 093°53'0 0.0
2017-Apr-06 07:00N 29°55' W 093°53'0 0.0
2017-Apr-06 06:30N 29°55' W 093°53'0 0.0
2017-Apr-06 06:00N 29°55' W 093°53'0 0.0
2017-Apr-06 05:30N 29°55' W 093°53'0 0.0
2017-Apr-06 05:00N 29°55' W 093°53'0 0.0
2017-Apr-06 04:21N 29°55' W 093°53'0 0.0
2017-Apr-06 02:53N 29°55' W 093°53'0 0.0
2017-Apr-06 02:29N 29°55' W 093°53'0 0.0
2017-Apr-05 13:29N 29°55' W 093°53'0 0.0
2017-Apr-05 03:54N 29°55' W 093°53'0 0.0
2017-Apr-05 02:20N 29°55' W 093°53'0 0.0
2017-Apr-05 01:02N 29°55' W 093°53'0 0.0
2017-Apr-05 00:57N 29°55' W 093°53'0 0.0
2017-Apr-05 00:21N 29°55' W 093°53'17 3.5
2017-Apr-04 19:34N 29°39' W 093°50'42 7.6
2017-Apr-04 13:58N 28°59' W 093°32'  
2017-Mar-30 10:17N 25°33' W 079°59'3 4.0
2017-Mar-30 09:33N 25°36' W 079°58'4 4.2
2017-Mar-30 08:33N 25°40' W 079°57'5 4.6
2017-Mar-30 07:33N 25°44' W 079°56'5 4.8
2017-Mar-30 06:33N 25°49' W 079°55'5 4.9
2017-Mar-30 05:33N 25°54' W 079°53'5 4.9
2017-Mar-30 04:29N 25°59' W 079°53'6 5.9
2017-Mar-30 03:33N 26°02' W 079°58'6 6.4
2017-Mar-30 02:33N 26°05' W 080°04'2 2.3
2017-Mar-30 01:32N 26°05' W 080°07'0 0.0
2017-Mar-30 00:32N 26°05' W 080°07'0 0.0
2017-Mar-29 23:32N 26°05' W 080°07'0 0.0
2017-Mar-29 22:32N 26°05' W 080°07'0 0.0
2017-Mar-29 21:32N 26°05' W 080°07'0 0.0
2017-Mar-29 20:32N 26°05' W 080°07'0 0.0
2017-Mar-29 19:32N 26°05' W 080°07'0 0.0
2017-Mar-29 18:33N 26°05' W 080°07'0 0.0
2017-Mar-29 17:33N 26°05' W 080°07'0 0.0
2017-Mar-29 16:33N 26°05' W 080°07'0 0.0
2017-Mar-29 15:34N 26°05' W 080°07'4 3.7
2017-Mar-29 14:34N 26°06' W 080°03'6 5.5
2017-Mar-29 13:32N 26°08' W 079°57'1 1.3
2017-Mar-29 12:33N 26°08' W 079°56'2 2.3
2017-Mar-29 11:33N 26°06' W 079°56'3 3.1
2017-Mar-29 10:33N 26°05' W 079°53'3 3.0
2017-Mar-29 09:33N 26°08' W 079°50'9 4.1
2017-Mar-29 07:27N 26°16' W 079°49'  

Dump ship's entire track history